sensor_id;sensor_type;location;lat;lon;timestamp;temperature;humidity
38854;DHT22;24606;51.992;4.198;2022-11-12T00:01:23;19.60;76.80
38854;DHT22;24606;51.992;4.198;2022-11-12T00:06:26;19.50;76.90
38854;DHT22;24606;51.992;4.198;2022-11-12T00:11:28;19.10;77.50
38854;DHT22;24606;51.992;4.198;2022-11-12T00:16:30;19.20;78.80
38854;DHT22;24606;51.992;4.198;2022-11-12T00:21:33;19.00;81.30
38854;DHT22;24606;51.992;4.198;2022-11-12T00:26:35;19.30;78.20
38854;DHT22;24606;51.992;4.198;2022-11-12T00:31:37;19.40;77.60
38854;DHT22;24606;51.992;4.198;2022-11-12T00:36:40;19.40;77.40
38854;DHT22;24606;51.992;4.198;2022-11-12T00:41:42;19.40;77.30
38854;DHT22;24606;51.992;4.198;2022-11-12T00:46:44;19.40;77.10
38854;DHT22;24606;51.992;4.198;2022-11-12T00:51:47;19.50;77.00
38854;DHT22;24606;51.992;4.198;2022-11-12T00:56:49;19.40;77.10
38854;DHT22;24606;51.992;4.198;2022-11-12T01:01:51;19.40;77.10
38854;DHT22;24606;51.992;4.198;2022-11-12T01:06:54;19.40;77.30
38854;DHT22;24606;51.992;4.198;2022-11-12T01:11:56;19.50;77.00
38854;DHT22;24606;51.992;4.198;2022-11-12T01:16:58;19.40;77.40
38854;DHT22;24606;51.992;4.198;2022-11-12T01:22:01;19.50;77.00
38854;DHT22;24606;51.992;4.198;2022-11-12T01:27:03;19.40;77.00
38854;DHT22;24606;51.992;4.198;2022-11-12T01:32:05;19.40;76.90
38854;DHT22;24606;51.992;4.198;2022-11-12T01:37:08;19.40;77.20
38854;DHT22;24606;51.992;4.198;2022-11-12T01:42:10;19.40;77.10
38854;DHT22;24606;51.992;4.198;2022-11-12T01:47:16;19.30;77.30
38854;DHT22;24606;51.992;4.198;2022-11-12T01:52:25;19.30;77.40
38854;DHT22;24606;51.992;4.198;2022-11-12T01:57:31;19.30;77.20
38854;DHT22;24606;51.992;4.198;2022-11-12T02:02:36;19.40;77.20
38854;DHT22;24606;51.992;4.198;2022-11-12T02:07:40;19.30;77.40
38854;DHT22;24606;51.992;4.198;2022-11-12T02:12:44;19.30;77.30
38854;DHT22;24606;51.992;4.198;2022-11-12T02:18:04;19.30;77.50
38854;DHT22;24606;51.992;4.198;2022-11-12T02:23:07;19.30;77.10
38854;DHT22;24606;51.992;4.198;2022-11-12T02:28:09;19.30;77.30
38854;DHT22;24606;51.992;4.198;2022-11-12T02:33:11;19.30;77.20
38854;DHT22;24606;51.992;4.198;2022-11-12T02:38:14;19.30;76.80
38854;DHT22;24606;51.992;4.198;2022-11-12T02:43:16;19.30;77.10
38854;DHT22;24606;51.992;4.198;2022-11-12T02:48:17;19.30;77.10
38854;DHT22;24606;51.992;4.198;2022-11-12T02:53:21;19.30;77.00
38854;DHT22;24606;51.992;4.198;2022-11-12T02:58:23;19.30;77.00
38854;DHT22;24606;51.992;4.198;2022-11-12T03:03:25;19.30;76.80
38854;DHT22;24606;51.992;4.198;2022-11-12T03:08:28;19.30;76.80
38854;DHT22;24606;51.992;4.198;2022-11-12T03:13:30;19.30;76.80
38854;DHT22;24606;51.992;4.198;2022-11-12T03:18:31;19.30;76.80
38854;DHT22;24606;51.992;4.198;2022-11-12T03:23:35;19.30;76.80
38854;DHT22;24606;51.992;4.198;2022-11-12T03:28:36;19.30;76.90
38854;DHT22;24606;51.992;4.198;2022-11-12T03:33:38;19.30;76.70
38854;DHT22;24606;51.992;4.198;2022-11-12T03:38:41;19.30;76.60
38854;DHT22;24606;51.992;4.198;2022-11-12T03:43:43;19.30;76.60
38854;DHT22;24606;51.992;4.198;2022-11-12T03:48:45;19.30;76.70
38854;DHT22;24606;51.992;4.198;2022-11-12T03:53:48;19.30;76.60
38854;DHT22;24606;51.992;4.198;2022-11-12T03:58:50;19.30;76.90
38854;DHT22;24606;51.992;4.198;2022-11-12T04:03:52;19.20;76.70
38854;DHT22;24606;51.992;4.198;2022-11-12T04:08:55;19.20;77.00
38854;DHT22;24606;51.992;4.198;2022-11-12T04:13:57;19.20;76.90
38854;DHT22;24606;51.992;4.198;2022-11-12T04:19:00;19.20;76.90
38854;DHT22;24606;51.992;4.198;2022-11-12T04:24:24;19.20;77.00
38854;DHT22;24606;51.992;4.198;2022-11-12T04:29:44;19.20;77.00
38854;DHT22;24606;51.992;4.198;2022-11-12T04:35:05;19.20;77.00
38854;DHT22;24606;51.992;4.198;2022-11-12T04:40:10;19.20;77.10
38854;DHT22;24606;51.992;4.198;2022-11-12T04:45:26;19.20;77.20
38854;DHT22;24606;51.992;4.198;2022-11-12T04:50:28;19.20;77.20
38854;DHT22;24606;51.992;4.198;2022-11-12T04:55:32;19.20;77.10
38854;DHT22;24606;51.992;4.198;2022-11-12T05:00:34;19.10;77.10
38854;DHT22;24606;51.992;4.198;2022-11-12T05:05:36;19.10;77.40
38854;DHT22;24606;51.992;4.198;2022-11-12T05:10:39;19.10;77.20
38854;DHT22;24606;51.992;4.198;2022-11-12T05:15:42;19.20;77.00
38854;DHT22;24606;51.992;4.198;2022-11-12T05:20:44;19.10;77.00
38854;DHT22;24606;51.992;4.198;2022-11-12T05:25:47;19.10;77.10
38854;DHT22;24606;51.992;4.198;2022-11-12T05:30:49;19.20;77.00
38854;DHT22;24606;51.992;4.198;2022-11-12T05:35:51;19.10;76.80
38854;DHT22;24606;51.992;4.198;2022-11-12T05:40:54;19.10;76.90
38854;DHT22;24606;51.992;4.198;2022-11-12T05:45:56;19.10;76.90
38854;DHT22;24606;51.992;4.198;2022-11-12T05:50:58;19.10;76.80
38854;DHT22;24606;51.992;4.198;2022-11-12T05:56:02;19.10;76.80
38854;DHT22;24606;51.992;4.198;2022-11-12T06:01:04;19.10;76.70
38854;DHT22;24606;51.992;4.198;2022-11-12T06:06:06;19.10;76.70
38854;DHT22;24606;51.992;4.198;2022-11-12T06:11:09;19.10;76.90
38854;DHT22;24606;51.992;4.198;2022-11-12T06:16:11;19.10;76.10
38854;DHT22;24606;51.992;4.198;2022-11-12T06:21:13;19.20;75.80
38854;DHT22;24606;51.992;4.198;2022-11-12T06:26:25;19.20;75.70
38854;DHT22;24606;51.992;4.198;2022-11-12T06:31:27;19.30;75.60
38854;DHT22;24606;51.992;4.198;2022-11-12T06:36:28;19.20;75.50
38854;DHT22;24606;51.992;4.198;2022-11-12T06:41:31;19.30;75.80
38854;DHT22;24606;51.992;4.198;2022-11-12T06:46:33;19.30;75.70
38854;DHT22;24606;51.992;4.198;2022-11-12T06:51:35;19.30;75.90
38854;DHT22;24606;51.992;4.198;2022-11-12T06:56:40;19.30;76.00
38854;DHT22;24606;51.992;4.198;2022-11-12T07:15:27;19.30;75.80
38854;DHT22;24606;51.992;4.198;2022-11-12T07:20:29;19.30;76.40
38854;DHT22;24606;51.992;4.198;2022-11-12T07:25:31;19.30;76.20
38854;DHT22;24606;51.992;4.198;2022-11-12T07:30:34;19.30;76.30
38854;DHT22;24606;51.992;4.198;2022-11-12T07:35:36;19.30;76.10
38854;DHT22;24606;51.992;4.198;2022-11-12T07:40:38;19.30;76.00
38854;DHT22;24606;51.992;4.198;2022-11-12T07:45:42;19.30;76.20
38854;DHT22;24606;51.992;4.198;2022-11-12T07:50:44;19.30;75.70
38854;DHT22;24606;51.992;4.198;2022-11-12T07:55:52;19.30;75.50
38854;DHT22;24606;51.992;4.198;2022-11-12T08:00:57;19.30;75.50
38854;DHT22;24606;51.992;4.198;2022-11-12T08:05:59;19.40;75.30
38854;DHT22;24606;51.992;4.198;2022-11-12T08:11:01;19.40;75.10
38854;DHT22;24606;51.992;4.198;2022-11-12T08:16:05;19.30;75.30
38854;DHT22;24606;51.992;4.198;2022-11-12T08:21:10;19.30;75.10
38854;DHT22;24606;51.992;4.198;2022-11-12T08:26:15;19.30;75.20
38854;DHT22;24606;51.992;4.198;2022-11-12T08:31:20;19.40;75.10
38854;DHT22;24606;51.992;4.198;2022-11-12T08:36:23;19.30;75.30
38854;DHT22;24606;51.992;4.198;2022-11-12T08:41:24;19.30;75.10
38854;DHT22;24606;51.992;4.198;2022-11-12T08:46:28;19.30;75.30
38854;DHT22;24606;51.992;4.198;2022-11-12T08:51:30;19.30;75.30
38854;DHT22;24606;51.992;4.198;2022-11-12T08:56:32;19.30;75.20
38854;DHT22;24606;51.992;4.198;2022-11-12T09:01:36;19.30;75.20
38854;DHT22;24606;51.992;4.198;2022-11-12T09:06:38;19.30;75.50
38854;DHT22;24606;51.992;4.198;2022-11-12T09:11:40;19.20;75.60
38854;DHT22;24606;51.992;4.198;2022-11-12T09:16:43;19.30;75.60
38854;DHT22;24606;51.992;4.198;2022-11-12T09:21:45;19.30;76.20
38854;DHT22;24606;51.992;4.198;2022-11-12T09:26:47;19.40;76.80
38854;DHT22;24606;51.992;4.198;2022-11-12T09:31:54;19.40;77.00
38854;DHT22;24606;51.992;4.198;2022-11-12T09:36:56;19.40;77.20
38854;DHT22;24606;51.992;4.198;2022-11-12T09:41:58;19.50;76.80
38854;DHT22;24606;51.992;4.198;2022-11-12T09:47:05;19.50;77.10
38854;DHT22;24606;51.992;4.198;2022-11-12T09:52:13;19.50;76.90
38854;DHT22;24606;51.992;4.198;2022-11-12T09:57:16;19.60;77.10
38854;DHT22;24606;51.992;4.198;2022-11-12T10:02:27;19.60;77.10
38854;DHT22;24606;51.992;4.198;2022-11-12T10:07:41;19.60;77.50
38854;DHT22;24606;51.992;4.198;2022-11-12T10:12:58;19.60;77.40
38854;DHT22;24606;51.992;4.198;2022-11-12T10:18:10;19.60;77.50
38854;DHT22;24606;51.992;4.198;2022-11-12T10:23:17;19.70;77.40
38854;DHT22;24606;51.992;4.198;2022-11-12T10:28:25;19.80;77.20
38854;DHT22;24606;51.992;4.198;2022-11-12T10:33:30;19.70;77.60
38854;DHT22;24606;51.992;4.198;2022-11-12T10:38:33;19.80;77.50
38854;DHT22;24606;51.992;4.198;2022-11-12T10:43:36;19.80;77.60
38854;DHT22;24606;51.992;4.198;2022-11-12T10:48:40;19.80;77.70
38854;DHT22;24606;51.992;4.198;2022-11-12T10:53:53;19.70;77.90
38854;DHT22;24606;51.992;4.198;2022-11-12T10:59:09;19.80;77.70
38854;DHT22;24606;51.992;4.198;2022-11-12T11:04:26;19.80;77.40
38854;DHT22;24606;51.992;4.198;2022-11-12T11:09:29;19.80;77.60
38854;DHT22;24606;51.992;4.198;2022-11-12T11:14:32;19.90;77.40
38854;DHT22;24606;51.992;4.198;2022-11-12T11:19:37;19.80;78.00
38854;DHT22;24606;51.992;4.198;2022-11-12T11:24:48;19.90;78.00
38854;DHT22;24606;51.992;4.198;2022-11-12T11:30:02;19.90;77.90
38854;DHT22;24606;51.992;4.198;2022-11-12T11:35:16;20.00;77.60
38854;DHT22;24606;51.992;4.198;2022-11-12T11:40:26;20.00;78.00
38854;DHT22;24606;51.992;4.198;2022-11-12T11:45:36;19.90;78.20
38854;DHT22;24606;51.992;4.198;2022-11-12T11:50:54;19.90;78.40
38854;DHT22;24606;51.992;4.198;2022-11-12T11:55:59;20.10;77.70
38854;DHT22;24606;51.992;4.198;2022-11-12T12:01:08;20.10;77.10
38854;DHT22;24606;51.992;4.198;2022-11-12T12:06:21;20.20;76.70
38854;DHT22;24606;51.992;4.198;2022-11-12T12:11:29;20.20;76.30
38854;DHT22;24606;51.992;4.198;2022-11-12T12:16:41;20.30;76.10
38854;DHT22;24606;51.992;4.198;2022-11-12T12:21:50;20.30;75.90
38854;DHT22;24606;51.992;4.198;2022-11-12T12:26:54;20.30;75.60
38854;DHT22;24606;51.992;4.198;2022-11-12T12:32:00;20.40;74.90
38854;DHT22;24606;51.992;4.198;2022-11-12T12:37:10;20.30;74.90
38854;DHT22;24606;51.992;4.198;2022-11-12T12:42:15;20.00;76.10
38854;DHT22;24606;51.992;4.198;2022-11-12T12:47:19;20.00;76.80
38854;DHT22;24606;51.992;4.198;2022-11-12T12:52:23;20.30;72.10
38854;DHT22;24606;51.992;4.198;2022-11-12T12:57:28;20.20;75.50
38854;DHT22;24606;51.992;4.198;2022-11-12T13:02:36;20.20;75.40
38854;DHT22;24606;51.992;4.198;2022-11-12T13:07:43;20.30;75.30
38854;DHT22;24606;51.992;4.198;2022-11-12T13:13:02;20.40;74.40
38854;DHT22;24606;51.992;4.198;2022-11-12T13:18:07;20.50;74.00
38854;DHT22;24606;51.992;4.198;2022-11-12T13:23:43;20.50;73.90
38854;DHT22;24606;51.992;4.198;2022-11-12T13:29:19;20.60;73.60
38854;DHT22;24606;51.992;4.198;2022-11-12T13:34:29;20.70;72.80
38854;DHT22;24606;51.992;4.198;2022-11-12T13:39:34;20.90;72.30
38854;DHT22;24606;51.992;4.198;2022-11-12T13:44:37;20.80;72.40
38854;DHT22;24606;51.992;4.198;2022-11-12T13:49:40;20.80;72.00
38854;DHT22;24606;51.992;4.198;2022-11-12T13:54:44;20.90;71.70
38854;DHT22;24606;51.992;4.198;2022-11-12T13:59:46;20.90;71.60
38854;DHT22;24606;51.992;4.198;2022-11-12T14:04:48;20.90;71.80
38854;DHT22;24606;51.992;4.198;2022-11-12T14:10:03;21.00;71.60
38854;DHT22;24606;51.992;4.198;2022-11-12T14:15:20;21.10;70.90
38854;DHT22;24606;51.992;4.198;2022-11-12T14:20:26;21.10;70.70
38854;DHT22;24606;51.992;4.198;2022-11-12T14:25:31;21.20;70.80
38854;DHT22;24606;51.992;4.198;2022-11-12T14:30:33;21.20;70.40
38854;DHT22;24606;51.992;4.198;2022-11-12T14:35:43;21.30;69.70
38854;DHT22;24606;51.992;4.198;2022-11-12T14:40:49;21.40;69.60
38854;DHT22;24606;51.992;4.198;2022-11-12T14:45:53;21.40;69.30
38854;DHT22;24606;51.992;4.198;2022-11-12T14:51:00;21.50;68.80
38854;DHT22;24606;51.992;4.198;2022-11-12T14:56:06;21.60;68.30
38854;DHT22;24606;51.992;4.198;2022-11-12T15:01:20;21.60;68.00
38854;DHT22;24606;51.992;4.198;2022-11-12T15:06:28;21.70;67.70
38854;DHT22;24606;51.992;4.198;2022-11-12T15:11:34;21.60;67.60
38854;DHT22;24606;51.992;4.198;2022-11-12T15:16:42;21.80;67.40
38854;DHT22;24606;51.992;4.198;2022-11-12T15:21:45;21.80;67.40
38854;DHT22;24606;51.992;4.198;2022-11-12T15:26:48;21.80;67.60
38854;DHT22;24606;51.992;4.198;2022-11-12T15:31:53;21.60;68.00
38854;DHT22;24606;51.992;4.198;2022-11-12T15:36:56;21.60;67.80
38854;DHT22;24606;51.992;4.198;2022-11-12T15:42:02;21.70;68.20
38854;DHT22;24606;51.992;4.198;2022-11-12T15:47:04;21.70;67.50
38854;DHT22;24606;51.992;4.198;2022-11-12T15:52:09;21.80;67.80
38854;DHT22;24606;51.992;4.198;2022-11-12T15:57:14;21.70;67.80
38854;DHT22;24606;51.992;4.198;2022-11-12T16:02:16;21.70;68.00
38854;DHT22;24606;51.992;4.198;2022-11-12T16:07:19;21.70;68.30
38854;DHT22;24606;51.992;4.198;2022-11-12T16:12:23;21.60;68.30
38854;DHT22;24606;51.992;4.198;2022-11-12T16:17:25;21.60;68.70
38854;DHT22;24606;51.992;4.198;2022-11-12T16:22:27;21.60;68.90
38854;DHT22;24606;51.992;4.198;2022-11-12T16:27:30;21.50;68.80
38854;DHT22;24606;51.992;4.198;2022-11-12T16:32:32;21.50;69.70
38854;DHT22;24606;51.992;4.198;2022-11-12T16:37:34;21.50;69.40
38854;DHT22;24606;51.992;4.198;2022-11-12T16:42:39;21.50;69.70
38854;DHT22;24606;51.992;4.198;2022-11-12T16:47:46;21.40;69.70
38854;DHT22;24606;51.992;4.198;2022-11-12T16:52:49;21.40;70.00
38854;DHT22;24606;51.992;4.198;2022-11-12T16:57:53;21.30;70.10
38854;DHT22;24606;51.992;4.198;2022-11-12T17:02:55;21.30;70.10
38854;DHT22;24606;51.992;4.198;2022-11-12T17:07:57;21.30;70.50
38854;DHT22;24606;51.992;4.198;2022-11-12T17:13:00;21.30;70.60
38854;DHT22;24606;51.992;4.198;2022-11-12T17:18:02;21.30;70.70
38854;DHT22;24606;51.992;4.198;2022-11-12T17:23:04;21.30;70.80
38854;DHT22;24606;51.992;4.198;2022-11-12T17:28:07;21.20;70.90
38854;DHT22;24606;51.992;4.198;2022-11-12T17:33:09;21.30;70.70
38854;DHT22;24606;51.992;4.198;2022-11-12T17:38:11;21.20;70.80
38854;DHT22;24606;51.992;4.198;2022-11-12T17:43:14;21.20;70.70
38854;DHT22;24606;51.992;4.198;2022-11-12T17:48:17;21.20;71.00
38854;DHT22;24606;51.992;4.198;2022-11-12T17:53:19;21.20;71.00
38854;DHT22;24606;51.992;4.198;2022-11-12T17:58:22;21.30;71.20
38854;DHT22;24606;51.992;4.198;2022-11-12T18:03:24;21.30;71.60
38854;DHT22;24606;51.992;4.198;2022-11-12T18:08:28;21.20;71.80
38854;DHT22;24606;51.992;4.198;2022-11-12T18:13:31;21.20;72.00
38854;DHT22;24606;51.992;4.198;2022-11-12T18:18:33;21.20;72.30
38854;DHT22;24606;51.992;4.198;2022-11-12T18:23:35;21.20;72.20
38854;DHT22;24606;51.992;4.198;2022-11-12T18:28:39;21.20;72.20
38854;DHT22;24606;51.992;4.198;2022-11-12T18:33:41;21.20;72.00
38854;DHT22;24606;51.992;4.198;2022-11-12T18:38:43;21.20;71.90
38854;DHT22;24606;51.992;4.198;2022-11-12T18:43:49;21.20;71.70
38854;DHT22;24606;51.992;4.198;2022-11-12T18:48:51;21.20;71.90
38854;DHT22;24606;51.992;4.198;2022-11-12T18:53:53;21.20;71.80
38854;DHT22;24606;51.992;4.198;2022-11-12T18:58:56;21.20;71.70
38854;DHT22;24606;51.992;4.198;2022-11-12T19:03:58;21.10;71.70
38854;DHT22;24606;51.992;4.198;2022-11-12T19:09:00;21.10;71.80
38854;DHT22;24606;51.992;4.198;2022-11-12T19:14:04;21.10;71.60
38854;DHT22;24606;51.992;4.198;2022-11-12T19:19:07;21.10;71.70
38854;DHT22;24606;51.992;4.198;2022-11-12T19:24:09;21.10;71.50
38854;DHT22;24606;51.992;4.198;2022-11-12T19:29:12;21.10;71.30
38854;DHT22;24606;51.992;4.198;2022-11-12T19:34:14;21.10;71.20
38854;DHT22;24606;51.992;4.198;2022-11-12T19:39:16;21.00;71.20
38854;DHT22;24606;51.992;4.198;2022-11-12T19:44:19;21.10;70.80
38854;DHT22;24606;51.992;4.198;2022-11-12T19:49:21;21.10;70.70
38854;DHT22;24606;51.992;4.198;2022-11-12T19:54:23;21.00;70.80
38854;DHT22;24606;51.992;4.198;2022-11-12T19:59:26;21.00;71.10
38854;DHT22;24606;51.992;4.198;2022-11-12T20:04:28;21.00;71.40
38854;DHT22;24606;51.992;4.198;2022-11-12T20:09:30;21.00;71.50
38854;DHT22;24606;51.992;4.198;2022-11-12T20:14:33;21.00;71.50
38854;DHT22;24606;51.992;4.198;2022-11-12T20:19:35;21.00;71.00
38854;DHT22;24606;51.992;4.198;2022-11-12T20:24:37;20.90;71.00
38854;DHT22;24606;51.992;4.198;2022-11-12T20:29:41;20.90;71.00
38854;DHT22;24606;51.992;4.198;2022-11-12T20:34:42;20.90;70.90
38854;DHT22;24606;51.992;4.198;2022-11-12T20:39:44;20.80;71.20
38854;DHT22;24606;51.992;4.198;2022-11-12T20:44:47;20.80;71.40
38854;DHT22;24606;51.992;4.198;2022-11-12T20:49:49;20.80;71.60
38854;DHT22;24606;51.992;4.198;2022-11-12T20:54:51;20.70;71.80
38854;DHT22;24606;51.992;4.198;2022-11-12T20:59:54;20.70;72.00
38854;DHT22;24606;51.992;4.198;2022-11-12T21:04:56;20.70;71.90
38854;DHT22;24606;51.992;4.198;2022-11-12T21:09:58;20.80;71.80
38854;DHT22;24606;51.992;4.198;2022-11-12T21:15:01;20.80;71.90
38854;DHT22;24606;51.992;4.198;2022-11-12T21:20:04;20.70;72.10
38854;DHT22;24606;51.992;4.198;2022-11-12T21:25:06;20.70;72.10
38854;DHT22;24606;51.992;4.198;2022-11-12T21:30:10;20.70;72.30
38854;DHT22;24606;51.992;4.198;2022-11-12T21:35:13;20.70;72.40
38854;DHT22;24606;51.992;4.198;2022-11-12T21:40:15;20.60;72.40
38854;DHT22;24606;51.992;4.198;2022-11-12T21:45:19;20.60;72.60
38854;DHT22;24606;51.992;4.198;2022-11-12T21:50:21;20.60;72.80
38854;DHT22;24606;51.992;4.198;2022-11-12T21:55:23;20.50;72.90
38854;DHT22;24606;51.992;4.198;2022-11-12T22:00:26;20.50;73.70
38854;DHT22;24606;51.992;4.198;2022-11-12T22:05:28;20.50;73.30
38854;DHT22;24606;51.992;4.198;2022-11-12T22:10:30;20.40;73.90
38854;DHT22;24606;51.992;4.198;2022-11-12T22:15:34;20.40;73.30
38854;DHT22;24606;51.992;4.198;2022-11-12T22:20:35;20.40;73.30
38854;DHT22;24606;51.992;4.198;2022-11-12T22:25:38;20.30;73.30
38854;DHT22;24606;51.992;4.198;2022-11-12T22:30:41;20.40;73.40
38854;DHT22;24606;51.992;4.198;2022-11-12T22:35:43;20.30;73.30
38854;DHT22;24606;51.992;4.198;2022-11-12T22:40:45;20.30;73.10
38854;DHT22;24606;51.992;4.198;2022-11-12T22:45:48;20.30;73.20
38854;DHT22;24606;51.992;4.198;2022-11-12T22:50:50;20.30;73.20
38854;DHT22;24606;51.992;4.198;2022-11-12T22:55:52;20.20;73.10
38854;DHT22;24606;51.992;4.198;2022-11-12T23:00:55;20.30;73.20
38854;DHT22;24606;51.992;4.198;2022-11-12T23:05:57;20.20;73.00
38854;DHT22;24606;51.992;4.198;2022-11-12T23:11:01;20.20;73.20
38854;DHT22;24606;51.992;4.198;2022-11-12T23:16:07;20.20;73.30
38854;DHT22;24606;51.992;4.198;2022-11-12T23:21:11;20.20;73.10
38854;DHT22;24606;51.992;4.198;2022-11-12T23:26:15;20.10;73.40
38854;DHT22;24606;51.992;4.198;2022-11-12T23:31:20;20.10;73.30
38854;DHT22;24606;51.992;4.198;2022-11-12T23:36:24;20.10;73.40
38854;DHT22;24606;51.992;4.198;2022-11-12T23:41:26;20.00;73.30
38854;DHT22;24606;51.992;4.198;2022-11-12T23:46:29;20.00;73.50
38854;DHT22;24606;51.992;4.198;2022-11-12T23:51:31;20.00;73.40
38854;DHT22;24606;51.992;4.198;2022-11-12T23:56:33;20.00;73.40
